createdAt,value
2023-04-08T00:00:16.564Z,45.29
2023-04-08T00:02:44.402Z,44.73
2023-04-08T00:05:11.451Z,44.59
2023-04-08T00:07:41.220Z,44.53
2023-04-08T00:10:08.426Z,44.89
2023-04-08T00:12:35.601Z,44.53
2023-04-08T00:15:03.462Z,44.62
2023-04-08T00:17:31.406Z,44.63
2023-04-08T00:19:58.057Z,44.09
2023-04-08T00:22:25.363Z,43.78
2023-04-08T00:24:51.987Z,43.92
2023-04-08T00:27:20.545Z,44.14
2023-04-08T00:29:47.391Z,44.17
2023-04-08T00:32:14.106Z,44.68
2023-04-08T00:34:42.728Z,45.31
2023-04-08T00:37:10.792Z,45.52
2023-04-08T00:39:37.692Z,45.55
2023-04-08T00:42:04.712Z,45.26
2023-04-08T00:44:31.233Z,45.14
2023-04-08T00:46:58.144Z,45.00
2023-04-08T00:49:25.829Z,45.07
2023-04-08T00:51:53.906Z,45.08
2023-04-08T00:54:22.933Z,44.49
2023-04-08T00:56:49.571Z,44.22
2023-04-08T00:59:16.876Z,43.89
2023-04-08T01:02:09.098Z,44.04
2023-04-08T01:04:44.187Z,44.50
2023-04-08T01:07:38.053Z,43.73
2023-04-08T01:10:07.488Z,44.46
2023-04-08T01:12:37.593Z,44.26
2023-04-08T01:15:05.684Z,43.98
2023-04-08T01:17:33.036Z,43.89
2023-04-08T01:20:01.170Z,44.16
2023-04-08T01:22:54.227Z,43.88
2023-04-08T01:25:23.003Z,44.32
2023-04-08T01:27:50.270Z,44.61
2023-04-08T01:30:18.829Z,45.12
2023-04-08T01:32:46.534Z,45.13
2023-04-08T01:35:14.845Z,45.14
2023-04-08T01:37:50.197Z,44.59
2023-04-08T01:40:20.040Z,44.48
2023-04-08T01:42:50.408Z,44.43
2023-04-08T01:45:17.054Z,44.63
2023-04-08T01:47:47.666Z,44.50
2023-04-08T01:50:15.822Z,44.56
2023-04-08T01:52:44.278Z,44.84
2023-04-08T01:55:14.315Z,44.68
2023-04-08T01:57:43.667Z,44.59
2023-04-08T02:00:12.289Z,45.35
2023-04-08T02:02:48.430Z,45.43
2023-04-08T02:05:15.315Z,44.88
2023-04-08T02:07:42.053Z,44.52
2023-04-08T02:10:12.468Z,44.72
2023-04-08T02:12:39.109Z,44.87
2023-04-08T02:15:11.636Z,44.70
2023-04-08T02:18:02.815Z,45.02
2023-04-08T02:20:47.205Z,45.52
2023-04-08T02:23:24.843Z,45.28
2023-04-08T02:25:51.903Z,45.36
2023-04-08T02:28:18.451Z,45.03
2023-04-08T02:30:49.700Z,45.09
2023-04-08T02:33:21.371Z,45.40
2023-04-08T02:35:50.189Z,45.77
2023-04-08T02:38:29.054Z,46.09
2023-04-08T02:40:56.193Z,46.62
2023-04-08T02:43:31.008Z,46.70
2023-04-08T02:46:09.148Z,45.90
2023-04-08T02:48:37.011Z,45.96
2023-04-08T02:51:03.600Z,45.85
2023-04-08T02:53:33.030Z,45.87
2023-04-08T02:55:59.856Z,46.35
2023-04-08T02:58:26.630Z,47.00
2023-04-08T03:00:54.764Z,47.11
2023-04-08T03:03:31.173Z,46.93
2023-04-08T03:05:58.645Z,46.73
2023-04-08T03:08:25.896Z,46.57
2023-04-08T03:10:52.710Z,46.75
2023-04-08T03:13:20.473Z,46.67
2023-04-08T03:15:47.226Z,46.34
2023-04-08T03:18:13.763Z,46.13
2023-04-08T03:20:40.575Z,45.61
2023-04-08T03:23:08.045Z,45.71
2023-04-08T03:25:35.489Z,46.26
2023-04-08T03:28:01.983Z,46.45
2023-04-08T03:30:29.302Z,45.91
2023-04-08T03:32:56.891Z,45.57
2023-04-08T03:35:24.282Z,46.01
2023-04-08T03:37:53.929Z,46.01
2023-04-08T03:40:20.439Z,46.13
2023-04-08T03:42:47.303Z,45.91
2023-04-08T03:45:13.865Z,45.93
2023-04-08T03:47:42.254Z,46.25
2023-04-08T03:50:09.544Z,46.14
2023-04-08T03:52:40.261Z,45.61
2023-04-08T03:55:07.369Z,45.04
2023-04-08T03:57:33.877Z,45.04
2023-04-08T04:00:00.722Z,45.16
2023-04-08T04:02:27.440Z,44.57
2023-04-08T04:04:54.369Z,44.26
2023-04-08T04:07:21.034Z,44.33
2023-04-08T04:09:47.559Z,44.22
2023-04-08T04:12:14.379Z,44.13
2023-04-08T04:14:46.004Z,43.94
2023-04-08T04:17:12.838Z,44.13
2023-04-08T04:19:39.462Z,44.28
2023-04-08T04:22:06.381Z,44.63
2023-04-08T04:24:35.283Z,44.85
2023-04-08T04:27:01.914Z,45.07
2023-04-08T04:29:30.997Z,45.13
2023-04-08T04:31:58.913Z,44.25
2023-04-08T04:34:25.412Z,44.63
2023-04-08T04:36:52.232Z,44.51
2023-04-08T04:39:20.537Z,45.19
2023-04-08T04:41:48.514Z,45.74
2023-04-08T04:44:15.343Z,46.05
2023-04-08T04:46:42.518Z,45.61
2023-04-08T04:49:09.057Z,45.69
2023-04-08T04:51:35.963Z,45.62
2023-04-08T04:54:04.778Z,45.90
2023-04-08T04:56:31.941Z,45.65
2023-04-08T04:59:06.024Z,45.40
2023-04-08T05:01:32.848Z,44.82
2023-04-08T05:03:59.725Z,44.45
2023-04-08T05:06:30.312Z,44.10
2023-04-08T05:08:57.703Z,43.84
2023-04-08T05:11:24.219Z,43.01
2023-04-08T05:13:55.983Z,42.91
2023-04-08T05:16:23.588Z,42.91
2023-04-08T05:18:50.592Z,42.71
2023-04-08T05:21:19.318Z,42.09
2023-04-08T05:23:47.001Z,41.64
2023-04-08T05:26:15.856Z,41.41
2023-04-08T05:28:53.157Z,41.46
2023-04-08T05:31:20.091Z,41.31
2023-04-08T05:33:47.079Z,41.13
2023-04-08T05:36:18.314Z,40.45
2023-04-08T05:38:45.558Z,40.24
2023-04-08T05:41:12.704Z,40.44
2023-04-08T05:43:39.218Z,39.80
2023-04-08T05:46:07.370Z,39.35
2023-04-08T05:48:34.192Z,39.26
2023-04-08T05:51:03.290Z,38.64
2023-04-08T05:53:30.201Z,38.64
2023-04-08T05:55:56.678Z,38.70
2023-04-08T05:58:24.762Z,38.01
2023-04-08T06:00:51.301Z,37.44
2023-04-08T06:03:20.816Z,37.89
2023-04-08T06:05:47.753Z,37.65
2023-04-08T06:08:14.832Z,37.64
2023-04-08T06:10:48.501Z,37.69
2023-04-08T06:13:19.537Z,37.35
2023-04-08T06:15:46.169Z,36.76
2023-04-08T06:18:12.689Z,37.04
2023-04-08T06:20:40.727Z,36.52
2023-04-08T06:23:07.510Z,36.06
2023-04-08T06:25:34.486Z,35.83
2023-04-08T06:28:00.998Z,35.16
2023-04-08T06:30:32.938Z,34.88
2023-04-08T06:34:48.377Z,40.21
2023-04-08T06:37:17.542Z,37.77
2023-04-08T06:39:45.540Z,36.67
2023-04-08T06:42:13.751Z,36.43
2023-04-08T06:45:00.830Z,35.92
2023-04-08T06:47:28.939Z,35.74
2023-04-08T06:49:57.206Z,35.82
2023-04-08T06:52:28.220Z,36.17
2023-04-08T06:54:56.177Z,35.73
2023-04-08T06:57:25.161Z,35.60
2023-04-08T06:59:53.608Z,35.28
2023-04-08T07:02:22.712Z,35.65
2023-04-08T07:04:50.829Z,35.14
2023-04-08T07:07:18.725Z,34.76
2023-04-08T07:09:48.927Z,34.71
2023-04-08T07:12:17.699Z,34.35
2023-04-08T07:14:45.648Z,33.90
2023-04-08T07:17:16.142Z,33.36
2023-04-08T07:19:45.467Z,32.68
2023-04-08T07:22:13.598Z,32.36
2023-04-08T07:24:43.473Z,31.92
2023-04-08T07:27:11.582Z,30.99
2023-04-08T07:29:39.828Z,31.30
2023-04-08T07:32:07.907Z,31.53
2023-04-08T07:34:36.852Z,31.39
2023-04-08T07:37:05.652Z,31.56
2023-04-08T07:39:33.550Z,32.19
2023-04-08T07:42:02.752Z,32.07
2023-04-08T07:44:31.609Z,31.82
2023-04-08T07:46:59.450Z,31.08
2023-04-08T07:49:27.363Z,30.42
2023-04-08T07:51:55.845Z,30.33
2023-04-08T07:54:24.290Z,30.03
2023-04-08T07:56:52.524Z,29.56
2023-04-08T07:59:22.001Z,29.64
2023-04-08T08:01:50.306Z,29.63
2023-04-08T08:04:18.648Z,29.18
2023-04-08T08:06:52.802Z,28.92
2023-04-08T08:09:21.772Z,29.10
2023-04-08T08:11:49.716Z,29.34
2023-04-08T08:14:19.660Z,29.36
2023-04-08T08:16:49.797Z,28.58
2023-04-08T08:19:17.700Z,28.55
2023-04-08T08:21:50.321Z,28.08
2023-04-08T08:24:18.484Z,27.38
2023-04-08T08:26:49.309Z,26.81
2023-04-08T08:29:17.246Z,25.81
2023-04-08T08:31:45.863Z,25.07
2023-04-08T08:34:13.977Z,24.75
2023-04-08T08:36:43.300Z,24.77
2023-04-08T08:39:11.617Z,24.47
2023-04-08T08:41:41.064Z,24.78
2023-04-08T08:44:09.331Z,24.89
2023-04-08T08:46:37.415Z,24.82
2023-04-08T08:49:06.060Z,24.74
2023-04-08T08:51:34.373Z,24.45
2023-04-08T08:54:04.277Z,24.11
2023-04-08T08:56:35.801Z,24.23
2023-04-08T08:59:06.116Z,23.93
2023-04-08T09:01:35.882Z,23.30
2023-04-08T09:04:14.014Z,22.63
2023-04-08T09:06:43.176Z,22.66
2023-04-08T09:09:11.538Z,22.83
2023-04-08T09:11:40.852Z,22.91
2023-04-08T09:14:23.015Z,22.86
2023-04-08T09:16:52.222Z,23.10
2023-04-08T09:19:20.463Z,23.38
2023-04-08T09:22:09.837Z,23.20
2023-04-08T09:24:38.157Z,22.97
2023-04-08T09:27:07.168Z,22.66
2023-04-08T09:29:39.952Z,23.26
2023-04-08T09:32:08.294Z,23.21
2023-04-08T09:34:37.814Z,22.93
2023-04-08T09:37:07.266Z,22.98
2023-04-08T09:39:38.767Z,24.04
2023-04-08T09:42:06.811Z,24.28
2023-04-08T09:44:34.988Z,24.02
2023-04-08T09:47:11.334Z,24.03
2023-04-08T09:49:48.027Z,24.17
2023-04-08T09:52:21.528Z,24.32
2023-04-08T09:55:04.222Z,24.00
2023-04-08T09:58:04.419Z,23.72
2023-04-08T10:00:37.804Z,23.77
2023-04-08T10:03:11.765Z,23.78
2023-04-08T10:05:42.310Z,24.30
2023-04-08T10:08:10.728Z,23.70
2023-04-08T10:10:39.580Z,23.15
2023-04-08T10:13:14.737Z,22.32
2023-04-08T10:15:43.397Z,23.17
2023-04-08T10:18:11.696Z,23.12
2023-04-08T10:20:42.583Z,22.72
2023-04-08T10:23:13.785Z,23.10
2023-04-08T10:25:42.396Z,23.58
2023-04-08T10:28:19.695Z,24.02
2023-04-08T10:30:49.076Z,23.83
2023-04-08T10:33:23.034Z,23.94
2023-04-08T10:35:55.734Z,23.57
2023-04-08T10:38:23.858Z,24.26
2023-04-08T10:40:52.482Z,24.12
2023-04-08T10:43:20.874Z,24.61
2023-04-08T10:45:51.511Z,24.60
2023-04-08T10:48:20.759Z,24.22
2023-04-08T10:51:04.215Z,24.45
2023-04-08T10:53:35.654Z,24.84
2023-04-08T10:56:08.036Z,24.79
2023-04-08T10:58:56.251Z,24.86
2023-04-08T11:01:24.279Z,24.82
2023-04-08T11:03:52.897Z,24.71
2023-04-08T11:06:23.509Z,24.55
2023-04-08T11:08:52.887Z,23.84
2023-04-08T11:11:21.533Z,23.64
2023-04-08T11:13:53.976Z,23.70
2023-04-08T11:16:23.080Z,23.10
2023-04-08T11:18:51.565Z,23.01
2023-04-08T11:21:22.382Z,22.48
2023-04-08T11:23:51.963Z,22.59
2023-04-08T11:26:21.168Z,22.93
2023-04-08T11:28:51.755Z,23.34
2023-04-08T11:31:22.657Z,23.67
2023-04-08T11:33:56.846Z,23.50
2023-04-08T11:36:27.345Z,22.44
2023-04-08T11:38:55.855Z,21.95
2023-04-08T11:41:36.165Z,21.55
2023-04-08T11:44:05.615Z,21.44
2023-04-08T11:46:35.519Z,20.38
2023-04-08T11:49:06.011Z,20.19
2023-04-08T11:51:55.241Z,20.18
2023-04-08T11:54:27.659Z,20.73
2023-04-08T11:56:56.255Z,20.75
2023-04-08T11:59:27.286Z,20.28
2023-04-08T12:01:57.007Z,20.13
2023-04-08T12:04:25.600Z,20.06
2023-04-08T12:06:54.690Z,20.03
2023-04-08T12:09:23.680Z,20.07
2023-04-08T12:11:52.584Z,20.36
2023-04-08T12:14:22.100Z,19.90
2023-04-08T12:16:50.358Z,19.98
2023-04-08T12:19:20.583Z,20.51
2023-04-08T12:21:49.396Z,20.81
2023-04-08T12:24:17.478Z,20.48
2023-04-08T12:26:50.393Z,20.66
2023-04-08T12:29:18.418Z,21.16
2023-04-08T12:31:46.671Z,21.49
2023-04-08T12:34:14.588Z,21.72
2023-04-08T12:36:42.950Z,21.61
2023-04-08T12:39:15.416Z,22.22
2023-04-08T12:41:43.578Z,22.85
2023-04-08T12:44:11.813Z,22.84
2023-04-08T12:46:44.462Z,22.78
2023-04-08T12:49:12.538Z,22.76
2023-04-08T12:51:47.220Z,22.56
2023-04-08T12:54:15.078Z,22.67
2023-04-08T12:56:46.338Z,22.69
2023-04-08T12:59:16.100Z,22.18
2023-04-08T13:01:44.432Z,22.55
2023-04-08T13:04:12.478Z,22.54
2023-04-08T13:06:40.743Z,23.12
2023-04-08T13:09:08.872Z,24.19
2023-04-08T13:11:38.509Z,26.02
2023-04-08T13:14:09.946Z,27.15
2023-04-08T13:16:38.180Z,28.59
2023-04-08T13:19:06.695Z,28.78
2023-04-08T13:21:35.306Z,29.28
2023-04-08T13:24:03.532Z,28.93
2023-04-08T13:26:31.772Z,29.26
2023-04-08T13:29:05.800Z,28.77
2023-04-08T13:31:34.110Z,29.29
2023-04-08T13:34:02.128Z,29.99
2023-04-08T13:36:33.852Z,30.64
2023-04-08T13:39:02.427Z,30.76
2023-04-08T13:41:30.485Z,30.95
2023-04-08T13:43:59.448Z,31.32
2023-04-08T13:46:27.388Z,31.93
2023-04-08T13:48:55.499Z,33.12
2023-04-08T13:51:23.811Z,33.12
2023-04-08T13:53:52.092Z,34.06
2023-04-08T13:56:20.037Z,33.08
2023-04-08T13:58:55.149Z,32.54
2023-04-08T14:01:28.227Z,32.88
2023-04-08T14:03:56.899Z,32.46
2023-04-08T14:06:25.233Z,32.06
2023-04-08T14:08:54.617Z,32.26
2023-04-08T14:11:22.707Z,31.77
2023-04-08T14:13:50.991Z,31.12
2023-04-08T14:16:20.121Z,31.58
2023-04-08T14:18:50.015Z,31.58
2023-04-08T14:21:18.880Z,32.07
2023-04-08T14:23:48.259Z,31.80
2023-04-08T14:26:16.474Z,32.27
2023-04-08T14:28:44.753Z,32.59
2023-04-08T14:31:12.947Z,32.44
2023-04-08T14:33:42.276Z,32.60
2023-04-08T14:36:11.731Z,32.54
2023-04-08T14:38:40.141Z,32.36
2023-04-08T14:41:10.470Z,32.30
2023-04-08T14:43:39.633Z,31.77
2023-04-08T14:46:07.627Z,31.54
2023-04-08T14:48:38.248Z,31.14
2023-04-08T14:51:06.372Z,30.91
2023-04-08T14:53:54.143Z,30.29
2023-04-08T14:56:22.074Z,29.97
2023-04-08T14:58:50.187Z,30.30
2023-04-08T15:01:19.257Z,30.39
2023-04-08T15:03:47.784Z,30.34
2023-04-08T15:06:18.589Z,30.48
2023-04-08T15:08:47.168Z,30.00
2023-04-08T15:11:15.772Z,29.86
2023-04-08T15:13:43.918Z,30.59
2023-04-08T15:16:12.251Z,31.39
2023-04-08T15:18:40.506Z,32.08
2023-04-08T15:21:14.812Z,31.97
2023-04-08T15:23:43.670Z,31.54
2023-04-08T15:26:11.670Z,31.87
2023-04-08T15:28:40.673Z,31.78
2023-04-08T15:31:09.410Z,31.36
2023-04-08T15:33:42.950Z,30.83
2023-04-08T15:36:11.493Z,30.67
2023-04-08T15:38:39.983Z,30.37
2023-04-08T15:41:15.216Z,30.51
2023-04-08T15:43:45.078Z,30.86
2023-04-08T15:46:18.532Z,30.59
2023-04-08T15:48:47.762Z,30.63
2023-04-08T15:51:17.216Z,30.27
2023-04-08T15:53:45.205Z,30.07
2023-04-08T15:56:16.372Z,30.06
2023-04-08T15:58:45.755Z,30.37
2023-04-08T16:01:13.747Z,30.32
2023-04-08T16:03:45.085Z,30.22
2023-04-08T16:06:13.157Z,30.71
2023-04-08T16:08:42.239Z,30.75
2023-04-08T16:11:10.159Z,30.38
2023-04-08T16:13:42.413Z,30.60
2023-04-08T16:16:12.480Z,30.66
2023-04-08T16:18:42.105Z,31.08
2023-04-08T16:21:10.391Z,31.00
2023-04-08T16:23:38.405Z,31.17
2023-04-08T16:26:09.866Z,31.25
2023-04-08T16:28:39.952Z,30.90
2023-04-08T16:31:08.038Z,30.68
2023-04-08T16:33:38.844Z,30.82
2023-04-08T16:36:06.918Z,30.60
2023-04-08T16:38:35.706Z,30.78
2023-04-08T16:41:06.209Z,31.03
2023-04-08T16:43:34.141Z,31.52
2023-04-08T16:46:12.906Z,31.64
2023-04-08T16:48:42.141Z,31.45
2023-04-08T16:51:10.559Z,31.75
2023-04-08T16:53:38.556Z,32.30
2023-04-08T16:56:13.778Z,32.18
2023-04-08T16:58:44.828Z,32.16
2023-04-08T17:01:16.223Z,32.12
2023-04-08T17:03:47.889Z,32.37
2023-04-08T17:06:17.857Z,32.75
2023-04-08T17:08:49.126Z,32.80
2023-04-08T17:11:18.108Z,32.77
2023-04-08T17:13:47.087Z,32.90
2023-04-08T17:16:17.217Z,33.26
2023-04-08T17:18:46.833Z,33.67
2023-04-08T17:21:15.727Z,33.58
2023-04-08T17:23:52.125Z,33.09
2023-04-08T17:26:22.187Z,33.78
2023-04-08T17:28:50.390Z,33.57
2023-04-08T17:31:18.327Z,33.74
2023-04-08T17:33:47.057Z,33.54
2023-04-08T17:36:17.591Z,33.48
2023-04-08T17:38:49.309Z,32.95
2023-04-08T17:41:29.806Z,33.28
2023-04-08T17:44:06.034Z,33.86
2023-04-08T17:46:33.980Z,33.38
2023-04-08T17:49:07.962Z,32.18
2023-04-08T17:51:37.429Z,31.80
2023-04-08T17:54:05.906Z,32.20
2023-04-08T17:56:36.821Z,32.78
2023-04-08T17:59:05.021Z,33.08
2023-04-08T18:01:34.987Z,33.05
2023-04-08T18:04:08.537Z,32.86
2023-04-08T18:06:37.437Z,33.24
2023-04-08T18:09:07.967Z,33.19
2023-04-08T18:11:38.495Z,32.67
2023-04-08T18:14:06.715Z,32.49
2023-04-08T18:16:42.172Z,32.36
2023-04-08T18:19:12.299Z,32.51
2023-04-08T18:21:40.184Z,33.16
2023-04-08T18:24:09.263Z,33.09
2023-04-08T18:26:37.972Z,33.19
2023-04-08T18:29:06.739Z,33.40
2023-04-08T18:31:34.744Z,33.84
2023-04-08T18:34:03.284Z,33.89
2023-04-08T18:36:32.520Z,33.83
2023-04-08T18:39:02.170Z,33.86
2023-04-08T18:41:33.150Z,34.15
2023-04-08T18:44:04.120Z,33.81
2023-04-08T18:46:32.999Z,33.72
2023-04-08T18:51:59.028Z,39.82
2023-04-08T18:54:30.309Z,37.03
2023-04-08T18:57:02.877Z,36.37
2023-04-08T18:59:32.635Z,35.84
2023-04-08T19:02:00.909Z,36.04
2023-04-08T19:04:29.136Z,35.66
2023-04-08T19:06:57.015Z,35.27
2023-04-08T19:09:25.095Z,35.72
2023-04-08T19:11:55.490Z,35.91
2023-04-08T19:14:25.509Z,36.01
2023-04-08T19:16:55.608Z,35.86
2023-04-08T19:19:23.996Z,35.66
2023-04-08T19:21:53.581Z,35.98
2023-04-08T19:24:26.755Z,35.88
2023-04-08T19:26:55.509Z,35.52
2023-04-08T19:29:24.496Z,35.42
2023-04-08T19:31:53.755Z,35.68
2023-04-08T19:34:21.668Z,36.00
2023-04-08T19:36:49.553Z,35.53
2023-04-08T19:39:19.384Z,35.86
2023-04-08T19:41:47.279Z,36.14
2023-04-08T19:44:16.610Z,36.02
2023-04-08T19:46:44.848Z,37.01
2023-04-08T19:49:12.779Z,37.11
2023-04-08T19:51:40.997Z,36.09
2023-04-08T19:54:17.570Z,36.43
2023-04-08T19:56:45.736Z,36.13
2023-04-08T19:59:13.697Z,36.31
2023-04-08T20:01:43.141Z,36.95
2023-04-08T20:04:11.740Z,37.15
2023-04-08T20:06:40.317Z,37.68
2023-04-08T20:09:08.288Z,38.38
2023-04-08T20:11:36.420Z,38.73
2023-04-08T20:14:09.136Z,38.88
2023-04-08T20:16:37.088Z,38.83
2023-04-08T20:19:05.027Z,38.63
2023-04-08T20:21:33.897Z,38.42
2023-04-08T20:24:02.310Z,38.89
2023-04-08T20:26:30.376Z,39.41
2023-04-08T20:28:59.160Z,39.42
2023-04-08T20:31:28.021Z,39.49
2023-04-08T20:33:59.212Z,39.12
2023-04-08T20:36:28.287Z,39.22
2023-04-08T20:38:56.358Z,39.61
2023-04-08T20:41:25.956Z,39.68
2023-04-08T20:43:55.434Z,39.84
2023-04-08T20:46:29.461Z,40.16
2023-04-08T20:48:57.393Z,40.27
2023-04-08T20:51:25.574Z,40.32
2023-04-08T20:53:56.112Z,40.24
2023-04-08T20:56:24.718Z,40.32
2023-04-08T20:58:53.129Z,40.53
2023-04-08T21:01:24.016Z,40.56
2023-04-08T21:03:52.648Z,40.07
2023-04-08T21:06:27.914Z,40.03
2023-04-08T21:08:58.501Z,40.20
2023-04-08T21:11:28.462Z,40.44
2023-04-08T21:14:01.547Z,40.42
2023-04-08T21:16:34.241Z,40.98
2023-04-08T21:19:04.144Z,40.84
2023-04-08T21:21:41.903Z,41.35
2023-04-08T21:24:10.705Z,41.72
2023-04-08T21:26:38.888Z,41.58
2023-04-08T21:29:07.150Z,41.63
2023-04-08T21:31:35.633Z,41.70
2023-04-08T21:34:07.214Z,41.90
2023-04-08T21:36:35.284Z,42.28
2023-04-08T21:39:03.298Z,41.99
2023-04-08T21:41:32.822Z,42.07
2023-04-08T21:44:00.728Z,42.06
2023-04-08T21:46:29.216Z,42.33
2023-04-08T21:48:57.613Z,42.88
2023-04-08T21:51:26.442Z,42.51
2023-04-08T21:53:54.404Z,42.73
2023-04-08T21:56:22.382Z,42.36
2023-04-08T21:58:51.060Z,42.08
2023-04-08T22:01:20.651Z,42.24
2023-04-08T22:03:49.520Z,43.08
2023-04-08T22:06:29.122Z,42.91
2023-04-08T22:08:59.330Z,42.55
2023-04-08T22:11:27.452Z,42.13
2023-04-08T22:13:55.391Z,42.19
2023-04-08T22:16:25.642Z,42.26
2023-04-08T22:18:54.011Z,42.73
2023-04-08T22:21:22.773Z,42.55
2023-04-08T22:23:52.001Z,42.14
2023-04-08T22:26:20.035Z,42.38
2023-04-08T22:28:51.006Z,42.33
2023-04-08T22:31:20.989Z,42.55
2023-04-08T22:33:50.259Z,42.37
2023-04-08T22:36:18.270Z,42.53
2023-04-08T22:38:46.557Z,42.52
2023-04-08T22:41:21.567Z,42.80
2023-04-08T22:43:49.948Z,43.00
2023-04-08T22:46:20.846Z,43.37
2023-04-08T22:48:49.591Z,43.54
2023-04-08T22:51:17.771Z,43.03
2023-04-08T22:53:46.111Z,43.11
2023-04-08T22:56:14.080Z,42.88
2023-04-08T22:58:50.263Z,43.12
2023-04-08T23:01:20.860Z,43.34
2023-04-08T23:03:49.743Z,43.29
2023-04-08T23:06:19.912Z,43.40
2023-04-08T23:08:51.348Z,43.49
2023-04-08T23:11:19.852Z,43.54
2023-04-08T23:13:54.864Z,43.66
2023-04-08T23:16:26.551Z,43.79
2023-04-08T23:18:54.685Z,43.49
2023-04-08T23:21:27.021Z,43.30
2023-04-08T23:23:54.947Z,43.09
2023-04-08T23:26:23.009Z,43.36
2023-04-08T23:28:55.528Z,44.11
2023-04-08T23:31:23.801Z,44.36
2023-04-08T23:33:52.877Z,43.85
2023-04-08T23:36:22.997Z,44.32
2023-04-08T23:38:51.546Z,44.28
2023-04-08T23:41:19.815Z,44.02
2023-04-08T23:43:54.141Z,43.53
2023-04-08T23:46:23.438Z,43.71
2023-04-08T23:48:56.185Z,43.72
2023-04-08T23:51:24.461Z,44.00
2023-04-08T23:53:52.350Z,44.04
2023-04-08T23:56:20.689Z,44.50
2023-04-08T23:58:48.719Z,44.58
